createdAt,value
2022-12-01T00:02:19.647Z,100138.28
2022-12-01T00:04:48.431Z,100138.56
2022-12-01T00:07:14.903Z,100143.22
2022-12-01T00:10:00.141Z,100140.66
2022-12-01T00:12:26.568Z,100141.13
2022-12-01T00:15:00.945Z,100142.19
2022-12-01T00:17:30.461Z,100139.63
2022-12-01T00:19:57.397Z,100135.97
2022-12-01T00:22:23.807Z,100132.00
2022-12-01T00:24:50.376Z,100135.22
2022-12-01T00:27:16.889Z,100138.63
2022-12-01T00:29:43.444Z,100138.72
2022-12-01T00:32:09.856Z,100130.06
2022-12-01T00:34:37.819Z,100134.25
2022-12-01T00:37:04.953Z,100137.31
2022-12-01T00:39:31.577Z,100137.78
2022-12-01T00:41:57.954Z,100135.88
2022-12-01T00:44:24.614Z,100138.28
2022-12-01T00:46:50.997Z,100140.94
2022-12-01T00:49:17.510Z,100138.75
2022-12-01T00:51:44.010Z,100138.88
2022-12-01T00:54:10.501Z,100140.56
2022-12-01T00:56:36.938Z,100139.22
2022-12-01T00:59:03.403Z,100140.94
2022-12-01T01:01:29.949Z,100136.75
2022-12-01T01:03:58.073Z,100137.41
2022-12-01T01:06:24.525Z,100140.16
2022-12-01T01:08:51.091Z,100139.03
2022-12-01T01:11:17.804Z,100149.50
2022-12-01T01:13:44.332Z,100144.94
2022-12-01T01:16:16.757Z,100149.78
2022-12-01T01:18:43.493Z,100152.34
2022-12-01T01:21:14.110Z,100154.25
2022-12-01T01:23:40.922Z,100149.28
2022-12-01T01:26:13.272Z,100154.34
2022-12-01T01:28:41.601Z,100166.03
2022-12-01T01:31:10.091Z,100149.13
2022-12-01T01:33:36.853Z,100166.19
2022-12-01T01:36:04.560Z,100165.09
2022-12-01T01:38:31.963Z,100155.28
2022-12-01T01:40:58.444Z,100155.38
2022-12-01T01:43:40.073Z,100168.59
2022-12-01T01:46:08.483Z,100167.16
2022-12-01T01:48:37.514Z,100167.84
2022-12-01T01:51:05.879Z,100166.78
2022-12-01T01:53:32.428Z,100174.59
2022-12-01T01:55:59.951Z,100172.09
2022-12-01T01:58:27.481Z,100167.00
2022-12-01T02:00:54.094Z,100166.13
2022-12-01T02:03:22.013Z,100163.28
2022-12-01T02:05:49.067Z,100169.84
2022-12-01T02:08:15.643Z,100161.84
2022-12-01T02:11:00.666Z,100157.69
2022-12-01T02:13:29.994Z,100156.13
2022-12-01T02:16:09.448Z,100156.53
2022-12-01T02:18:38.884Z,100150.13
2022-12-01T02:21:20.593Z,100151.00
2022-12-01T02:24:37.882Z,100155.63
2022-12-01T02:27:25.366Z,100157.03
2022-12-01T02:30:29.237Z,100156.09
2022-12-01T02:33:06.505Z,100158.78
2022-12-01T02:35:57.496Z,100158.22
2022-12-01T02:38:40.472Z,100159.91
2022-12-01T02:41:20.208Z,100155.34
2022-12-01T02:43:56.763Z,100155.59
2022-12-01T02:46:46.657Z,100147.63
2022-12-01T02:49:19.719Z,100152.78
2022-12-01T02:51:48.689Z,100147.38
2022-12-01T02:54:15.672Z,100147.19
2022-12-01T02:56:45.040Z,100150.88
2022-12-01T02:59:13.321Z,100143.66
2022-12-01T03:01:55.677Z,100151.28
2022-12-01T03:04:35.548Z,100142.97
2022-12-01T03:07:54.095Z,100144.53
2022-12-01T03:10:37.004Z,100149.75
2022-12-01T03:13:22.235Z,100136.25
2022-12-01T03:16:01.285Z,100145.88
2022-12-01T03:18:36.887Z,100139.97
2022-12-01T03:21:09.504Z,100136.31
2022-12-01T03:23:42.307Z,100135.41
2022-12-01T03:26:16.271Z,100138.41
2022-12-01T03:28:49.611Z,100142.13
2022-12-01T03:31:23.012Z,100137.47
2022-12-01T03:33:59.200Z,100141.44
2022-12-01T03:36:33.410Z,100135.94
2022-12-01T03:39:05.344Z,100134.53
2022-12-01T03:41:38.341Z,100134.84
2022-12-01T03:44:09.715Z,100137.28
2022-12-01T03:46:53.911Z,100135.03
2022-12-01T03:49:23.640Z,100133.66
2022-12-01T03:52:13.338Z,100141.19
2022-12-01T03:54:47.159Z,100137.38
2022-12-01T03:57:20.797Z,100139.38
2022-12-01T03:59:47.939Z,100137.66
2022-12-01T04:02:14.802Z,100133.97
2022-12-01T04:04:41.329Z,100146.13
2022-12-01T04:07:13.286Z,100136.97
2022-12-01T04:09:41.656Z,100138.41
2022-12-01T04:12:30.492Z,100138.91
2022-12-01T04:14:57.975Z,100150.78
2022-12-01T04:17:25.255Z,100147.53
2022-12-01T04:19:51.936Z,100151.13
2022-12-01T04:22:18.934Z,100148.78
2022-12-01T04:24:45.394Z,100149.34
2022-12-01T04:27:11.914Z,100150.19
2022-12-01T04:29:38.318Z,100148.34
2022-12-01T04:32:05.329Z,100151.00
2022-12-01T04:34:31.711Z,100147.94
2022-12-01T04:36:58.628Z,100141.94
2022-12-01T04:39:24.998Z,100137.00
2022-12-01T04:41:51.625Z,100142.97
2022-12-01T04:44:18.189Z,100144.03
2022-12-01T04:46:44.863Z,100146.59
2022-12-01T04:49:11.416Z,100143.16
2022-12-01T04:51:38.033Z,100142.31
2022-12-01T04:54:05.781Z,100145.72
2022-12-01T04:56:33.482Z,100136.91
2022-12-01T04:59:00.877Z,100140.06
2022-12-01T05:01:27.469Z,100136.91
2022-12-01T05:03:54.187Z,100138.63
2022-12-01T05:06:23.235Z,100133.00
2022-12-01T05:08:51.086Z,100141.28
2022-12-01T05:11:18.497Z,100140.72
2022-12-01T05:13:47.419Z,100133.66
2022-12-01T05:16:20.241Z,100149.19
2022-12-01T05:19:13.032Z,100142.31
2022-12-01T05:21:41.795Z,100150.19
2022-12-01T05:24:09.138Z,100156.59
2022-12-01T05:26:36.831Z,100148.13
2022-12-01T05:29:03.505Z,100150.66
2022-12-01T05:31:30.476Z,100156.53
2022-12-01T05:33:56.970Z,100150.19
2022-12-01T05:36:23.649Z,100156.69
2022-12-01T05:38:50.128Z,100149.75
2022-12-01T05:41:17.549Z,100148.78
2022-12-01T05:43:44.258Z,100149.47
2022-12-01T05:46:10.916Z,100149.94
2022-12-01T05:48:37.531Z,100139.81
2022-12-01T05:51:12.043Z,100150.53
2022-12-01T05:53:38.800Z,100147.44
2022-12-01T05:56:06.885Z,100144.63
2022-12-01T05:58:34.842Z,100154.34
2022-12-01T06:01:02.211Z,100148.38
2022-12-01T06:03:28.702Z,100156.91
2022-12-01T06:05:55.322Z,100157.84
2022-12-01T06:08:21.757Z,100153.41
2022-12-01T06:10:48.209Z,100163.34
2022-12-01T06:13:14.894Z,100165.22
2022-12-01T06:15:41.429Z,100160.00
2022-12-01T06:18:07.914Z,100155.53
2022-12-01T06:20:34.362Z,100159.66
2022-12-01T06:23:00.897Z,100167.31
2022-12-01T06:25:27.494Z,100167.66
2022-12-01T06:27:58.338Z,100171.59
2022-12-01T06:30:25.494Z,100179.56
2022-12-01T06:32:52.027Z,100175.63
2022-12-01T06:35:18.606Z,100176.41
2022-12-01T06:37:45.128Z,100174.88
2022-12-01T06:40:12.083Z,100173.91
2022-12-01T06:42:38.633Z,100186.63
2022-12-01T06:45:05.473Z,100193.34
2022-12-01T06:47:31.929Z,100183.28
2022-12-01T06:49:58.327Z,100187.13
2022-12-01T06:52:24.753Z,100183.28
2022-12-01T06:54:51.299Z,100191.19
2022-12-01T06:57:18.015Z,100192.53
2022-12-01T06:59:44.829Z,100195.19
2022-12-01T07:02:11.816Z,100194.28
2022-12-01T07:04:38.357Z,100209.31
2022-12-01T07:07:06.006Z,100198.28
2022-12-01T07:09:32.535Z,100199.84
2022-12-01T07:11:59.012Z,100199.16
2022-12-01T07:14:26.718Z,100200.00
2022-12-01T07:16:54.113Z,100206.34
2022-12-01T07:19:20.761Z,100200.00
2022-12-01T07:21:47.331Z,100206.44
2022-12-01T07:24:14.567Z,100207.75
2022-12-01T07:26:42.158Z,100209.97
2022-12-01T07:29:11.475Z,100213.75
2022-12-01T07:31:39.096Z,100215.22
2022-12-01T07:34:06.156Z,100215.97
2022-12-01T07:36:32.948Z,100219.75
2022-12-01T07:38:59.361Z,100215.81
2022-12-01T07:41:25.925Z,100219.41
2022-12-01T07:43:52.451Z,100217.69
2022-12-01T07:46:23.591Z,100215.00
2022-12-01T07:48:51.483Z,100225.88
2022-12-01T07:51:18.749Z,100214.94
2022-12-01T07:53:46.394Z,100216.16
2022-12-01T07:56:13.344Z,100205.34
2022-12-01T07:58:40.334Z,100201.38
2022-12-01T08:01:12.220Z,100211.84
2022-12-01T08:03:39.524Z,100213.75
2022-12-01T08:06:06.894Z,100215.81
2022-12-01T08:08:36.744Z,100214.50
2022-12-01T08:11:06.561Z,100222.31
2022-12-01T08:13:33.521Z,100213.38
2022-12-01T08:16:04.096Z,100214.91
2022-12-01T08:18:30.712Z,100219.38
2022-12-01T08:21:00.174Z,100217.47
2022-12-01T08:23:26.586Z,100218.69
2022-12-01T08:25:53.142Z,100226.50
2022-12-01T08:28:20.638Z,100220.00
2022-12-01T08:30:47.673Z,100217.06
2022-12-01T08:33:14.197Z,100221.09
2022-12-01T08:35:40.787Z,100223.16
2022-12-01T08:38:07.209Z,100231.06
2022-12-01T08:40:33.714Z,100230.47
2022-12-01T08:43:00.150Z,100231.25
2022-12-01T08:45:26.729Z,100233.09
2022-12-01T08:47:54.744Z,100232.81
2022-12-01T08:50:21.252Z,100230.16
2022-12-01T08:52:47.764Z,100233.34
2022-12-01T08:55:14.224Z,100231.38
2022-12-01T08:57:42.392Z,100236.09
2022-12-01T09:00:09.546Z,100234.50
2022-12-01T09:02:36.103Z,100235.84
2022-12-01T09:05:03.241Z,100244.78
2022-12-01T09:07:29.724Z,100239.13
2022-12-01T09:09:56.231Z,100243.66
2022-12-01T09:12:22.659Z,100241.34
2022-12-01T09:14:49.692Z,100245.22
2022-12-01T09:17:17.527Z,100250.28
2022-12-01T09:19:44.517Z,100246.88
2022-12-01T09:22:11.865Z,100245.72
2022-12-01T09:24:38.903Z,100243.41
2022-12-01T09:27:05.628Z,100242.56
2022-12-01T09:29:32.454Z,100251.31
2022-12-01T09:32:00.349Z,100255.44
2022-12-01T09:34:28.043Z,100242.31
2022-12-01T09:36:56.714Z,100259.91
2022-12-01T09:39:23.649Z,100263.31
2022-12-01T09:42:07.449Z,100258.28
2022-12-01T09:44:53.166Z,100253.88
2022-12-01T09:47:28.100Z,100260.94
2022-12-01T09:50:14.658Z,100259.91
2022-12-01T09:52:47.272Z,100247.63
2022-12-01T09:55:16.805Z,100251.13
2022-12-01T09:57:46.709Z,100249.41
2022-12-01T10:00:13.744Z,100245.22
2022-12-01T10:02:50.521Z,100244.22
2022-12-01T10:05:21.047Z,100236.38
2022-12-01T10:08:02.252Z,100232.75
2022-12-01T10:10:36.819Z,100237.91
2022-12-01T10:13:06.469Z,100234.16
2022-12-01T10:15:47.756Z,100239.25
2022-12-01T10:18:37.943Z,100234.25
2022-12-01T10:21:35.990Z,100234.19
2022-12-01T10:24:12.482Z,100223.09
2022-12-01T10:26:54.446Z,100223.00
2022-12-01T10:29:28.356Z,100225.28
2022-12-01T10:32:00.839Z,100213.69
2022-12-01T10:34:30.196Z,100205.53
2022-12-01T10:36:57.983Z,100208.59
2022-12-01T10:39:39.614Z,100208.13
2022-12-01T10:42:17.066Z,100196.28
2022-12-01T10:44:44.488Z,100207.63
2022-12-01T10:47:20.927Z,100197.88
2022-12-01T10:49:48.543Z,100193.88
2022-12-01T10:52:38.721Z,100194.06
2022-12-01T10:55:26.419Z,100194.06
2022-12-01T10:57:55.024Z,100193.31
2022-12-01T11:00:58.041Z,100193.78
2022-12-01T11:03:36.675Z,100196.94
2022-12-01T11:06:06.601Z,100198.47
2022-12-01T11:08:44.421Z,100193.53
2022-12-01T11:11:36.578Z,100179.34
2022-12-01T11:14:16.378Z,100182.88
2022-12-01T11:16:45.668Z,100189.06
2022-12-01T11:19:32.612Z,100188.03
2022-12-01T11:22:01.871Z,100181.47
2022-12-01T11:24:43.595Z,100164.41
2022-12-01T11:27:18.695Z,100158.81
2022-12-01T11:29:49.025Z,100165.47
2022-12-01T11:32:35.128Z,100160.81
2022-12-01T11:35:11.056Z,100156.97
2022-12-01T11:37:50.490Z,100160.03
2022-12-01T11:40:33.554Z,100156.13
2022-12-01T11:43:05.105Z,100155.94
2022-12-01T11:45:40.958Z,100149.13
2022-12-01T11:48:44.768Z,100149.13
2022-12-01T11:53:46.826Z,100142.16
2022-12-01T11:56:23.767Z,100148.63
2022-12-01T11:58:56.754Z,100139.28
2022-12-01T12:01:35.169Z,100148.16
2022-12-01T12:04:16.195Z,100141.84
2022-12-01T12:06:57.041Z,100142.91
2022-12-01T12:09:39.014Z,100144.63
2022-12-01T12:12:31.004Z,100144.44
2022-12-01T12:15:19.197Z,100141.75
2022-12-01T12:18:09.249Z,100143.47
2022-12-01T12:20:45.448Z,100141.16
2022-12-01T12:23:37.863Z,100136.97
2022-12-01T12:26:32.786Z,100131.56
2022-12-01T12:29:20.888Z,100129.66
2022-12-01T12:32:15.490Z,100134.03
2022-12-01T12:34:49.351Z,100131.47
2022-12-01T12:37:34.995Z,100120.78
2022-12-01T12:40:20.182Z,100122.88
2022-12-01T12:43:20.097Z,100130.13
2022-12-01T12:46:08.589Z,100120.13
2022-12-01T12:49:03.567Z,100117.47
2022-12-01T12:51:36.229Z,100125.00
2022-12-01T12:54:11.795Z,100122.44
2022-12-01T12:56:43.287Z,100109.00
2022-12-01T12:59:18.219Z,100122.72
2022-12-01T13:01:55.527Z,100120.06
2022-12-01T13:04:27.855Z,100128.72
2022-12-01T13:07:10.431Z,100118.88
2022-12-01T13:09:44.396Z,100122.44
2022-12-01T13:12:28.473Z,100121.84
2022-12-01T13:15:02.013Z,100119.69
2022-12-01T13:17:36.809Z,100119.38
2022-12-01T13:20:04.802Z,100116.81
2022-12-01T13:22:35.769Z,100119.38
2022-12-01T13:25:03.751Z,100121.47
2022-12-01T13:27:35.122Z,100116.81
2022-12-01T13:30:01.962Z,100115.28
2022-12-01T13:32:34.496Z,100111.97
2022-12-01T13:35:03.309Z,100101.31
2022-12-01T13:37:35.576Z,100098.81
2022-12-01T13:40:24.271Z,100101.78
2022-12-01T13:43:05.543Z,100098.03
2022-12-01T13:45:40.564Z,100089.38
2022-12-01T13:48:37.005Z,100093.78
2022-12-01T13:51:04.784Z,100087.28
2022-12-01T13:53:35.882Z,100093.50
2022-12-01T13:56:17.758Z,100100.22
2022-12-01T13:58:50.396Z,100096.72
2022-12-01T14:01:19.868Z,100095.69
2022-12-01T14:04:11.109Z,100092.91
2022-12-01T14:06:49.488Z,100099.09
2022-12-01T14:09:35.355Z,100093.88
2022-12-01T14:12:05.673Z,100088.00
2022-12-01T14:14:38.219Z,100096.25
2022-12-01T14:17:05.186Z,100095.03
2022-12-01T14:19:34.217Z,100088.44
2022-12-01T14:22:02.186Z,100096.91
2022-12-01T14:24:37.360Z,100083.50
2022-12-01T14:27:05.251Z,100086.44
2022-12-01T14:29:38.610Z,100096.25
2022-12-01T14:32:25.616Z,100102.53
2022-12-01T14:34:55.671Z,100097.50
2022-12-01T14:37:27.306Z,100104.72
2022-12-01T14:40:03.576Z,100094.94
2022-12-01T14:42:57.767Z,100100.06
2022-12-01T14:45:33.657Z,100095.41
2022-12-01T14:48:15.239Z,100091.69
2022-12-01T14:50:55.181Z,100094.25
2022-12-01T14:53:33.929Z,100091.88
2022-12-01T14:56:14.624Z,100092.06
2022-12-01T14:58:51.865Z,100090.81
2022-12-01T15:01:19.088Z,100092.91
2022-12-01T15:03:50.445Z,100090.22
2022-12-01T15:06:22.692Z,100095.88
2022-12-01T15:12:03.820Z,100092.06
2022-12-01T15:14:32.432Z,100099.84
2022-12-01T15:16:59.635Z,100093.03
2022-12-01T15:19:34.285Z,100094.97
2022-12-01T15:22:15.498Z,100087.28
2022-12-01T15:24:43.162Z,100091.06
2022-12-01T15:27:28.048Z,100088.22
2022-12-01T15:29:56.065Z,100089.19
2022-12-01T15:32:24.832Z,100092.41
2022-12-01T15:34:54.585Z,100094.13
2022-12-01T15:37:24.896Z,100087.84
2022-12-01T15:40:00.862Z,100091.38
2022-12-01T15:42:39.474Z,100092.97
2022-12-01T15:45:19.035Z,100087.75
2022-12-01T15:47:50.279Z,100100.88
2022-12-01T15:50:42.730Z,100104.00
2022-12-01T15:53:33.353Z,100112.81
2022-12-01T15:56:03.042Z,100103.88
2022-12-01T15:58:34.684Z,100110.94
2022-12-01T16:01:05.526Z,100120.22
2022-12-01T16:03:45.980Z,100116.69
2022-12-01T16:06:12.861Z,100127.41
2022-12-01T16:08:39.596Z,100130.69
2022-12-01T16:11:24.428Z,100126.66
2022-12-01T16:14:21.355Z,100136.69
2022-12-01T16:16:49.325Z,100140.50
2022-12-01T16:19:18.955Z,100140.84
2022-12-01T16:21:53.870Z,100139.63
2022-12-01T16:24:30.668Z,100132.78
2022-12-01T16:27:07.383Z,100136.56
2022-12-01T16:29:48.329Z,100143.59
2022-12-01T16:32:22.899Z,100143.06
2022-12-01T16:34:51.582Z,100131.41
2022-12-01T16:37:18.659Z,100140.16
2022-12-01T16:39:45.247Z,100138.00
2022-12-01T16:42:16.548Z,100129.69
2022-12-01T16:44:44.811Z,100132.34
2022-12-01T16:47:22.782Z,100123.34
2022-12-01T16:49:49.680Z,100119.06
2022-12-01T16:52:43.204Z,100130.19
2022-12-01T16:55:03.226Z,100129.19
2022-12-01T16:57:29.687Z,100118.72
2022-12-01T16:59:56.068Z,100116.97
2022-12-01T17:02:22.802Z,100113.22
2022-12-01T17:04:49.564Z,100116.47
2022-12-01T17:07:16.249Z,100107.25
2022-12-01T17:09:42.615Z,100113.56
2022-12-01T17:12:09.684Z,100116.97
2022-12-01T17:14:36.078Z,100113.13
2022-12-01T17:17:02.423Z,100113.56
2022-12-01T17:19:28.872Z,100113.97
2022-12-01T17:21:56.825Z,100113.38
2022-12-01T17:24:23.675Z,100114.31
2022-12-01T17:26:50.047Z,100121.91
2022-12-01T17:29:16.465Z,100115.72
2022-12-01T17:31:42.879Z,100119.25
2022-12-01T17:34:09.302Z,100129.97
2022-12-01T17:36:35.684Z,100126.00
2022-12-01T17:39:02.111Z,100128.00
2022-12-01T17:41:35.472Z,100129.19
2022-12-01T17:44:03.455Z,100128.75
2022-12-01T17:46:30.859Z,100122.97
2022-12-01T17:48:57.624Z,100129.69
2022-12-01T17:51:24.065Z,100133.22
2022-12-01T17:53:50.514Z,100137.06
2022-12-01T17:56:17.372Z,100137.06
2022-12-01T17:58:44.132Z,100146.44
2022-12-01T18:01:16.371Z,100134.00
2022-12-01T18:03:43.265Z,100136.91
2022-12-01T18:06:10.202Z,100151.16
2022-12-01T18:08:37.132Z,100147.91
2022-12-01T18:11:09.808Z,100142.75
2022-12-01T18:13:38.409Z,100152.81
2022-12-01T18:16:10.417Z,100157.66
2022-12-01T18:18:38.154Z,100155.28
2022-12-01T18:21:06.840Z,100148.41
2022-12-01T18:23:33.354Z,100147.66
2022-12-01T18:26:08.661Z,100160.63
2022-12-01T18:28:38.846Z,100142.69
2022-12-01T18:31:11.319Z,100153.22
2022-12-01T18:33:40.851Z,100143.28
2022-12-01T18:36:23.184Z,100146.34
2022-12-01T18:38:51.622Z,100149.78
2022-12-01T18:41:18.832Z,100147.31
2022-12-01T18:43:45.382Z,100140.34
2022-12-01T18:46:13.911Z,100139.69
2022-12-01T18:48:46.059Z,100148.66
2022-12-01T18:51:13.349Z,100140.97
2022-12-01T18:53:40.204Z,100144.03
2022-12-01T18:56:11.870Z,100145.16
2022-12-01T18:58:39.597Z,100147.66
2022-12-01T19:01:26.864Z,100146.91
2022-12-01T19:03:57.414Z,100141.47
2022-12-01T19:06:26.334Z,100139.84
2022-12-01T19:08:53.500Z,100145.25
2022-12-01T19:11:20.196Z,100146.19
2022-12-01T19:13:47.409Z,100140.69
2022-12-01T19:16:15.860Z,100144.31
2022-12-01T19:18:42.802Z,100139.41
2022-12-01T19:21:11.526Z,100125.34
2022-12-01T19:23:38.479Z,100138.91
2022-12-01T19:26:07.013Z,100138.13
2022-12-01T19:28:34.893Z,100151.34
2022-12-01T19:31:09.418Z,100146.69
2022-12-01T19:33:36.256Z,100147.03
2022-12-01T19:36:08.257Z,100141.47
2022-12-01T19:38:35.093Z,100145.34
2022-12-01T19:41:01.960Z,100147.22
2022-12-01T19:43:28.417Z,100142.06
2022-12-01T19:45:55.011Z,100138.13
2022-12-01T19:48:21.457Z,100141.72
2022-12-01T19:50:47.988Z,100138.38
2022-12-01T19:53:14.558Z,100138.22
2022-12-01T19:55:40.923Z,100140.38
2022-12-01T19:58:07.406Z,100129.75
2022-12-01T20:00:33.886Z,100129.38
2022-12-01T20:03:00.900Z,100133.50
2022-12-01T20:05:27.500Z,100135.63
2022-12-01T20:07:54.075Z,100135.38
2022-12-01T20:10:20.607Z,100139.72
2022-12-01T20:12:47.642Z,100134.84
2022-12-01T20:15:15.258Z,100138.34
2022-12-01T20:17:41.950Z,100135.00
2022-12-01T20:20:10.008Z,100137.97
2022-12-01T20:22:37.048Z,100130.22
2022-12-01T20:25:05.377Z,100132.13
2022-12-01T20:27:32.093Z,100126.28
2022-12-01T20:29:59.139Z,100118.63
2022-12-01T20:32:25.700Z,100124.09
2022-12-01T20:34:52.473Z,100128.97
2022-12-01T20:37:19.218Z,100125.44
2022-12-01T20:39:45.669Z,100122.72
2022-12-01T20:42:12.284Z,100125.22
2022-12-01T20:44:39.990Z,100125.75
2022-12-01T20:47:06.826Z,100121.44
2022-12-01T20:49:33.480Z,100131.19
2022-12-01T20:52:00.003Z,100122.97
2022-12-01T20:54:28.443Z,100130.16
2022-12-01T20:56:56.278Z,100134.16
2022-12-01T20:59:23.016Z,100135.03
2022-12-01T21:01:49.440Z,100126.72
2022-12-01T21:04:17.203Z,100133.06
2022-12-01T21:06:43.777Z,100127.22
2022-12-01T21:09:12.978Z,100129.47
2022-12-01T21:12:09.033Z,100134.56
2022-12-01T21:14:37.597Z,100134.72
2022-12-01T21:17:16.879Z,100134.88
2022-12-01T21:19:52.246Z,100138.16
2022-12-01T21:22:20.090Z,100136.44
2022-12-01T21:24:50.934Z,100138.59
2022-12-01T21:27:17.933Z,100132.69
2022-12-01T21:29:47.293Z,100127.19
2022-12-01T21:32:27.169Z,100128.78
2022-12-01T21:34:59.945Z,100131.44
2022-12-01T21:37:27.949Z,100134.34
2022-12-01T21:39:56.649Z,100128.66
2022-12-01T21:42:27.448Z,100126.63
2022-12-01T21:44:55.574Z,100135.22
2022-12-01T21:47:24.358Z,100125.59
2022-12-01T21:49:57.206Z,100128.72
2022-12-01T21:52:33.165Z,100125.34
2022-12-01T21:55:22.605Z,100124.09
2022-12-01T21:57:51.217Z,100122.25
2022-12-01T22:00:29.617Z,100119.28
2022-12-01T22:03:07.924Z,100122.19
2022-12-01T22:06:13.699Z,100122.09
2022-12-01T22:08:38.262Z,100117.63
2022-12-01T22:11:25.982Z,100118.47
2022-12-01T22:14:10.542Z,100105.56
2022-12-01T22:16:41.361Z,100109.41
2022-12-01T22:19:16.677Z,100103.75
2022-12-01T22:21:50.411Z,100101.50
2022-12-01T22:24:27.282Z,100096.50
2022-12-01T22:27:03.749Z,100094.69
2022-12-01T22:29:33.987Z,100100.72
2022-12-01T22:32:33.074Z,100094.56
2022-12-01T22:35:24.482Z,100086.13
2022-12-01T22:38:02.808Z,100081.22
2022-12-01T22:40:36.663Z,100090.63
2022-12-01T22:43:15.176Z,100079.66
2022-12-01T22:46:03.383Z,100078.78
2022-12-01T22:48:33.740Z,100079.66
2022-12-01T22:51:20.855Z,100076.13
2022-12-01T22:53:48.127Z,100074.50
2022-12-01T22:56:36.572Z,100070.91
2022-12-01T22:59:16.415Z,100075.28
2022-12-01T23:01:49.082Z,100070.06
2022-12-01T23:04:53.921Z,100069.75
2022-12-01T23:07:30.925Z,100068.72
2022-12-01T23:10:09.129Z,100073.56
2022-12-01T23:12:36.853Z,100075.25
2022-12-01T23:15:33.298Z,100068.94
2022-12-01T23:18:11.702Z,100062.59
2022-12-01T23:20:38.243Z,100069.63
2022-12-01T23:23:12.602Z,100073.28
2022-12-01T23:25:39.777Z,100062.06
2022-12-01T23:28:08.391Z,100069.59
2022-12-01T23:30:36.741Z,100057.16
2022-12-01T23:33:06.559Z,100064.13
2022-12-01T23:35:45.424Z,100064.19
2022-12-01T23:38:18.706Z,100062.94
2022-12-01T23:40:45.746Z,100054.97
2022-12-01T23:43:19.670Z,100060.75
2022-12-01T23:45:46.704Z,100052.03
2022-12-01T23:48:25.290Z,100051.41
2022-12-01T23:50:53.723Z,100046.50
2022-12-01T23:53:32.676Z,100049.31
2022-12-01T23:56:09.877Z,100047.66
2022-12-01T23:58:36.504Z,100049.84
